createdAt,value
2019-05-10T00:00:05.801Z,86.59
2019-05-10T00:01:05.755Z,86.59
2019-05-10T00:02:05.772Z,86.29
2019-05-10T00:03:05.768Z,86.49
2019-05-10T00:04:05.817Z,86.79
2019-05-10T00:05:05.753Z,86.38
2019-05-10T00:06:05.737Z,86.79
2019-05-10T00:07:07.349Z,86.69
2019-05-10T00:08:05.754Z,86.79
2019-05-10T00:09:05.705Z,86.69
2019-05-10T00:10:05.681Z,86.29
2019-05-10T00:11:05.831Z,86.29
2019-05-10T00:12:05.657Z,86.49
2019-05-10T00:13:05.655Z,86.69
2019-05-10T00:14:05.654Z,86.69
2019-05-10T00:15:05.616Z,86.83
2019-05-10T00:16:06.509Z,86.69
2019-05-10T00:17:05.637Z,86.79
2019-05-10T00:18:05.593Z,86.59
2019-05-10T00:19:05.581Z,86.59
2019-05-10T00:20:05.575Z,86.49
2019-05-10T00:21:05.546Z,86.43
2019-05-10T00:22:05.606Z,86.53
2019-05-10T00:23:05.556Z,86.59
2019-05-10T00:24:05.515Z,86.49
2019-05-10T00:25:06.416Z,86.63
2019-05-10T00:26:05.491Z,86.29
2019-05-10T00:27:05.499Z,87.10
2019-05-10T00:28:05.529Z,87.10
2019-05-10T00:29:05.514Z,87.14
2019-05-10T00:30:05.464Z,86.29
2019-05-10T00:31:05.491Z,86.73
2019-05-10T00:32:05.436Z,87.00
2019-05-10T00:33:05.458Z,87.00
2019-05-10T00:34:05.447Z,87.10
2019-05-10T00:35:05.422Z,87.00
2019-05-10T00:36:05.407Z,87.20
2019-05-10T00:37:05.428Z,87.30
2019-05-10T00:38:05.413Z,86.79
2019-05-10T00:39:05.408Z,87.10
2019-05-10T00:40:05.392Z,87.10
2019-05-10T00:41:05.350Z,87.61
2019-05-10T00:42:05.354Z,87.30
2019-05-10T00:43:05.341Z,88.06
2019-05-10T00:44:05.362Z,87.35
2019-05-10T00:45:05.346Z,87.51
2019-05-10T00:46:05.319Z,87.30
2019-05-10T00:47:05.371Z,86.90
2019-05-10T00:48:05.267Z,87.30
2019-05-10T00:49:05.296Z,86.79
2019-05-10T00:50:05.280Z,86.90
2019-05-10T00:51:05.238Z,87.35
2019-05-10T00:52:05.230Z,87.35
2019-05-10T00:53:05.295Z,87.30
2019-05-10T00:54:05.253Z,87.41
2019-05-10T00:55:17.728Z,87.10
2019-05-10T00:56:06.177Z,87.45
2019-05-10T00:57:05.160Z,87.41
2019-05-10T00:58:05.176Z,87.30
2019-05-10T00:59:05.176Z,87.10
2019-05-10T01:00:05.136Z,86.79
2019-05-10T01:01:05.147Z,87.00
2019-05-10T01:02:14.556Z,86.96
2019-05-10T01:03:14.483Z,86.79
2019-05-10T01:04:14.998Z,86.76
2019-05-10T01:05:13.496Z,86.79
2019-05-10T01:06:14.555Z,87.00
2019-05-10T01:08:21.957Z,87.10
2019-05-10T01:09:29.599Z,86.96
2019-05-10T01:10:30.346Z,86.44
2019-05-10T01:11:31.392Z,86.79
2019-05-10T01:12:31.892Z,86.24
2019-05-10T01:13:31.427Z,86.35
2019-05-10T01:14:21.886Z,86.55
2019-05-10T01:15:21.906Z,86.35
2019-05-10T01:16:21.879Z,86.24
2019-05-10T01:17:21.856Z,86.18
2019-05-10T01:18:21.923Z,86.79
2019-05-10T01:19:21.822Z,86.44
2019-05-10T01:20:31.434Z,86.65
2019-05-10T01:21:21.804Z,86.76
2019-05-10T01:22:21.786Z,86.65
2019-05-10T01:23:21.800Z,86.14
2019-05-10T01:24:21.786Z,86.24
2019-05-10T01:25:34.065Z,86.35
2019-05-10T01:26:22.755Z,86.04
2019-05-10T01:27:21.785Z,85.42
2019-05-10T01:28:21.751Z,85.42
2019-05-10T01:29:21.724Z,85.32
2019-05-10T01:30:21.722Z,85.02
2019-05-10T01:31:21.731Z,85.63
2019-05-10T01:32:21.741Z,84.91
2019-05-10T01:33:21.676Z,85.02
2019-05-10T01:34:21.661Z,84.71
2019-05-10T01:35:21.694Z,84.50
2019-05-10T01:36:21.677Z,84.16
2019-05-10T01:37:21.650Z,84.09
2019-05-10T01:38:21.644Z,83.89
2019-05-10T01:39:21.624Z,84.41
2019-05-10T01:40:21.597Z,84.36
2019-05-10T01:41:21.605Z,84.06
2019-05-10T01:42:21.600Z,84.16
2019-05-10T01:43:21.576Z,84.26
2019-05-10T01:44:21.570Z,83.95
2019-05-10T01:45:21.543Z,83.65
2019-05-10T01:46:21.574Z,83.44
2019-05-10T01:47:21.557Z,83.54
2019-05-10T01:48:21.546Z,83.65
2019-05-10T01:49:21.511Z,83.59
2019-05-10T01:50:21.505Z,83.44
2019-05-10T01:51:21.489Z,82.83
2019-05-10T01:52:21.485Z,82.93
2019-05-10T01:53:21.522Z,82.93
2019-05-10T01:54:21.456Z,82.83
2019-05-10T01:55:21.478Z,82.83
2019-05-10T01:56:21.460Z,82.42
2019-05-10T01:57:21.488Z,82.63
2019-05-10T01:58:21.463Z,82.63
2019-05-10T01:59:21.435Z,82.63
2019-05-10T02:00:21.410Z,82.53
2019-05-10T02:01:21.402Z,82.53
2019-05-10T02:02:21.399Z,82.12
2019-05-10T02:03:21.380Z,82.42
2019-05-10T02:04:21.350Z,82.83
2019-05-10T02:05:21.346Z,82.22
2019-05-10T02:06:21.334Z,82.12
2019-05-10T02:07:22.637Z,82.12
2019-05-10T02:08:24.555Z,81.67
2019-05-10T02:09:22.412Z,81.46
2019-05-10T02:10:22.875Z,81.77
2019-05-10T02:11:21.304Z,82.08
2019-05-10T02:12:21.564Z,81.67
2019-05-10T02:13:21.471Z,81.81
2019-05-10T02:14:22.720Z,81.67
2019-05-10T02:15:21.342Z,81.77
2019-05-10T02:16:22.925Z,82.28
2019-05-10T02:17:22.377Z,81.57
2019-05-10T02:18:22.043Z,81.77
2019-05-10T02:19:21.888Z,81.77
2019-05-10T02:20:22.275Z,81.87
2019-05-10T02:21:23.009Z,81.37
2019-05-10T02:22:22.177Z,81.73
2019-05-10T02:23:23.583Z,82.35
2019-05-10T02:24:22.009Z,81.67
2019-05-10T02:25:22.381Z,81.53
2019-05-10T02:26:21.262Z,81.32
2019-05-10T02:27:21.882Z,81.67
2019-05-10T02:28:22.043Z,81.43
2019-05-10T02:29:22.411Z,81.63
2019-05-10T02:30:21.886Z,82.04
2019-05-10T02:31:21.896Z,82.14
2019-05-10T02:32:22.465Z,82.24
2019-05-10T02:33:21.971Z,83.47
2019-05-10T02:34:21.362Z,83.78
2019-05-10T02:35:21.160Z,83.98
2019-05-10T02:36:22.211Z,83.98
2019-05-10T02:37:22.676Z,84.28
2019-05-10T02:38:21.900Z,84.49
2019-05-10T02:39:22.888Z,84.69
2019-05-10T02:40:22.224Z,84.69
2019-05-10T02:41:21.896Z,84.80
2019-05-10T02:42:21.892Z,85.30
2019-05-10T02:43:21.098Z,85.51
2019-05-10T02:44:21.886Z,85.30
2019-05-10T02:45:21.027Z,85.96
2019-05-10T02:46:21.456Z,86.12
2019-05-10T02:47:21.018Z,84.63
2019-05-10T02:48:20.918Z,84.08
2019-05-10T02:49:20.914Z,83.92
2019-05-10T02:50:20.892Z,84.18
2019-05-10T02:51:20.854Z,84.39
2019-05-10T02:52:20.845Z,84.49
2019-05-10T02:53:20.861Z,84.49
2019-05-10T02:54:20.822Z,84.08
2019-05-10T02:55:20.893Z,83.98
2019-05-10T02:56:30.286Z,84.28
2019-05-10T02:57:21.812Z,83.98
2019-05-10T02:58:20.820Z,83.98
2019-05-10T02:59:20.791Z,84.39
2019-05-10T03:00:20.755Z,84.08
2019-05-10T03:01:20.748Z,84.18
2019-05-10T03:02:20.804Z,84.04
2019-05-10T03:03:20.729Z,83.98
2019-05-10T03:04:20.748Z,84.08
2019-05-10T03:05:20.725Z,84.08
2019-05-10T03:06:20.712Z,84.08
2019-05-10T03:07:20.814Z,84.04
2019-05-10T03:08:20.680Z,83.98
2019-05-10T03:09:20.680Z,83.98
2019-05-10T03:10:20.689Z,83.78
2019-05-10T03:11:20.682Z,83.47
2019-05-10T03:12:20.659Z,83.98
2019-05-10T03:13:20.619Z,84.80
2019-05-10T03:14:20.640Z,84.49
2019-05-10T03:15:20.625Z,84.39
2019-05-10T03:16:20.686Z,84.90
2019-05-10T03:17:20.602Z,84.59
2019-05-10T03:18:20.561Z,84.80
2019-05-10T03:19:20.560Z,84.49
2019-05-10T03:20:20.590Z,84.18
2019-05-10T03:21:20.562Z,84.39
2019-05-10T03:22:20.533Z,84.69
2019-05-10T03:23:20.545Z,84.80
2019-05-10T03:24:20.529Z,84.49
2019-05-10T03:25:20.499Z,84.39
2019-05-10T03:26:20.532Z,84.59
2019-05-10T03:27:20.483Z,84.63
2019-05-10T03:28:20.593Z,84.83
2019-05-10T03:29:20.477Z,85.10
2019-05-10T03:30:20.464Z,85.45
2019-05-10T03:31:20.450Z,85.75
2019-05-10T03:32:20.446Z,85.96
2019-05-10T03:33:20.451Z,85.14
2019-05-10T03:34:20.419Z,85.35
2019-05-10T03:35:20.396Z,85.35
2019-05-10T03:36:20.365Z,85.55
2019-05-10T03:37:20.421Z,85.35
2019-05-10T03:38:20.356Z,85.86
2019-05-10T03:39:20.392Z,86.36
2019-05-10T03:40:20.330Z,86.47
2019-05-10T03:41:20.325Z,86.26
2019-05-10T03:42:20.372Z,86.26
2019-05-10T03:43:20.350Z,86.57
2019-05-10T03:44:20.298Z,85.96
2019-05-10T03:45:20.279Z,86.16
2019-05-10T03:46:20.477Z,86.16
2019-05-10T03:47:20.334Z,86.16
2019-05-10T03:48:20.268Z,86.16
2019-05-10T03:49:20.313Z,86.06
2019-05-10T03:50:20.225Z,86.57
2019-05-10T03:51:20.212Z,85.96
2019-05-10T03:52:20.212Z,85.04
2019-05-10T03:53:20.260Z,85.04
2019-05-10T03:54:20.228Z,83.20
2019-05-10T03:55:20.196Z,83.71
2019-05-10T03:56:20.179Z,83.71
2019-05-10T03:57:20.149Z,84.28
2019-05-10T03:58:20.157Z,83.57
2019-05-10T03:59:20.144Z,83.37
2019-05-10T04:00:20.131Z,83.37
2019-05-10T04:01:20.118Z,83.47
2019-05-10T04:02:20.103Z,83.16
2019-05-10T04:03:20.093Z,82.86
2019-05-10T04:04:20.325Z,82.86
2019-05-10T04:05:20.094Z,82.24
2019-05-10T04:06:20.065Z,82.14
2019-05-10T04:07:20.045Z,81.73
2019-05-10T04:08:20.030Z,81.84
2019-05-10T04:09:20.059Z,81.73
2019-05-10T04:10:21.093Z,81.94
2019-05-10T04:11:20.044Z,81.63
2019-05-10T04:12:20.247Z,81.53
2019-05-10T04:13:23.189Z,81.29
2019-05-10T04:14:20.342Z,81.32
2019-05-10T04:15:23.784Z,81.39
2019-05-10T04:16:20.107Z,81.39
2019-05-10T04:17:20.919Z,81.53
2019-05-10T04:18:19.964Z,80.27
2019-05-10T04:19:22.115Z,81.12
2019-05-10T04:20:20.769Z,81.39
2019-05-10T04:21:20.005Z,80.37
2019-05-10T04:22:22.083Z,80.37
2019-05-10T04:23:20.327Z,79.96
2019-05-10T04:24:19.885Z,80.37
2019-05-10T04:25:19.866Z,80.37
2019-05-10T04:26:19.863Z,79.96
2019-05-10T04:27:31.497Z,79.66
2019-05-10T04:28:22.464Z,80.16
2019-05-10T04:29:19.889Z,80.07
2019-05-10T04:30:19.812Z,80.37
2019-05-10T04:31:19.948Z,80.02
2019-05-10T04:32:20.409Z,80.13
2019-05-10T04:33:19.812Z,79.96
2019-05-10T04:34:19.767Z,79.04
2019-05-10T04:35:20.072Z,79.32
2019-05-10T04:36:19.969Z,79.41
2019-05-10T04:37:19.737Z,79.62
2019-05-10T04:38:19.900Z,80.13
2019-05-10T04:39:19.761Z,79.93
2019-05-10T04:40:20.341Z,80.23
2019-05-10T04:41:19.863Z,79.82
2019-05-10T04:42:20.117Z,79.72
2019-05-10T04:43:20.867Z,80.02
2019-05-10T04:44:20.421Z,80.02
2019-05-10T04:45:21.930Z,79.11
2019-05-10T04:46:19.668Z,79.11
2019-05-10T04:47:23.905Z,79.11
2019-05-10T04:48:19.679Z,79.11
2019-05-10T04:49:19.623Z,79.11
2019-05-10T04:50:19.590Z,79.11
2019-05-10T04:51:19.596Z,79.11
2019-05-10T04:52:19.671Z,78.97
2019-05-10T04:53:19.568Z,78.97
2019-05-10T04:54:19.682Z,79.79
2019-05-10T04:55:19.581Z,78.87
2019-05-10T04:56:19.578Z,79.17
2019-05-10T04:57:21.727Z,79.27
2019-05-10T04:58:19.516Z,79.38
2019-05-10T04:59:21.307Z,78.66
2019-05-10T05:00:19.485Z,78.36
2019-05-10T05:01:20.418Z,79.24
2019-05-10T05:02:22.075Z,78.87
2019-05-10T05:03:20.532Z,78.93
2019-05-10T05:04:24.339Z,78.46
2019-05-10T05:05:29.858Z,78.26
2019-05-10T05:06:19.409Z,78.32
2019-05-10T05:07:19.393Z,78.22
2019-05-10T05:08:20.651Z,78.12
2019-05-10T05:09:24.457Z,78.02
2019-05-10T05:10:25.647Z,77.91
2019-05-10T05:11:19.958Z,77.57
2019-05-10T05:12:29.111Z,77.37
2019-05-10T05:13:21.066Z,77.17
2019-05-10T05:14:22.131Z,77.06
2019-05-10T05:15:19.414Z,77.06
2019-05-10T05:16:21.171Z,77.47
2019-05-10T05:17:22.058Z,77.26
2019-05-10T05:18:22.605Z,77.03
2019-05-10T05:19:19.287Z,76.82
2019-05-10T05:20:19.278Z,76.42
2019-05-10T05:21:19.278Z,76.52
2019-05-10T05:22:19.252Z,76.72
2019-05-10T05:23:19.224Z,76.59
2019-05-10T05:24:22.900Z,76.11
2019-05-10T05:25:21.995Z,76.42
2019-05-10T05:26:21.065Z,76.18
2019-05-10T05:27:20.994Z,76.59
2019-05-10T05:28:23.286Z,76.21
2019-05-10T05:29:22.007Z,76.28
2019-05-10T05:30:20.640Z,75.57
2019-05-10T05:31:34.228Z,74.55
2019-05-10T05:32:20.058Z,75.06
2019-05-10T05:33:20.090Z,75.16
2019-05-10T05:34:19.677Z,75.26
2019-05-10T05:35:19.168Z,75.26
2019-05-10T05:36:19.240Z,74.55
2019-05-10T05:37:19.124Z,75.16
2019-05-10T05:38:19.307Z,75.16
2019-05-10T05:39:19.212Z,75.16
2019-05-10T05:40:19.106Z,75.16
2019-05-10T05:41:19.075Z,74.62
2019-05-10T05:42:22.381Z,74.62
2019-05-10T05:43:21.773Z,74.41
2019-05-10T05:44:20.263Z,74.38
2019-05-10T05:45:20.187Z,73.97
2019-05-10T05:46:19.082Z,72.75
2019-05-10T05:47:19.686Z,72.85
2019-05-10T05:48:21.529Z,72.34
2019-05-10T05:49:18.971Z,72.01
2019-05-10T05:50:18.994Z,71.50
2019-05-10T05:51:19.093Z,70.45
2019-05-10T05:52:18.969Z,70.65
2019-05-10T05:53:22.425Z,71.36
2019-05-10T05:54:20.615Z,70.72
2019-05-10T05:55:22.766Z,70.32
2019-05-10T05:56:19.107Z,70.11
2019-05-10T05:57:22.243Z,70.11
2019-05-10T05:58:26.505Z,69.81
2019-05-10T05:59:23.799Z,69.40
2019-05-10T06:00:19.951Z,69.81
2019-05-10T06:01:26.124Z,69.91
2019-05-10T06:02:20.506Z,68.66
2019-05-10T06:03:27.767Z,69.20
2019-05-10T06:04:19.796Z,69.37
2019-05-10T06:05:32.708Z,68.87
2019-05-10T06:06:22.196Z,68.73
2019-05-10T06:07:18.756Z,68.43
2019-05-10T06:08:22.897Z,67.99
2019-05-10T06:09:19.750Z,68.09
2019-05-10T06:10:19.866Z,68.43
2019-05-10T06:11:19.499Z,68.02
2019-05-10T06:12:18.728Z,67.92
2019-05-10T06:13:23.515Z,68.29
2019-05-10T06:14:19.849Z,68.40
2019-05-10T06:15:23.078Z,68.32
2019-05-10T06:16:22.190Z,68.93
2019-05-10T06:17:23.831Z,68.43
2019-05-10T06:18:19.717Z,68.43
2019-05-10T06:19:19.944Z,68.46
2019-05-10T06:20:19.715Z,68.87
2019-05-10T06:21:25.110Z,68.76
2019-05-10T06:22:19.638Z,69.27
2019-05-10T06:23:18.640Z,68.87
2019-05-10T06:24:18.649Z,68.76
2019-05-10T06:25:18.733Z,69.17
2019-05-10T06:26:26.503Z,69.47
2019-05-10T06:27:19.638Z,68.76
2019-05-10T06:28:26.899Z,69.37
2019-05-10T06:29:19.860Z,68.96
2019-05-10T06:30:18.560Z,69.07
2019-05-10T06:31:18.554Z,68.83
2019-05-10T06:32:18.615Z,68.76
2019-05-10T06:33:21.132Z,68.56
2019-05-10T06:34:18.533Z,69.47
2019-05-10T06:35:19.548Z,69.57
2019-05-10T06:36:18.563Z,69.27
2019-05-10T06:37:18.562Z,68.52
2019-05-10T06:38:18.490Z,68.87
2019-05-10T06:39:18.541Z,68.80
2019-05-10T06:40:25.659Z,68.73
2019-05-10T06:41:19.422Z,68.60
2019-05-10T06:42:18.655Z,68.40
2019-05-10T06:43:18.448Z,68.70
2019-05-10T06:44:18.458Z,68.43
2019-05-10T06:45:18.372Z,68.32
2019-05-10T06:46:18.483Z,67.92
2019-05-10T06:47:21.681Z,68.09
2019-05-10T06:48:25.763Z,67.79
2019-05-10T06:49:19.349Z,67.99
2019-05-10T06:50:28.997Z,67.79
2019-05-10T06:51:19.379Z,67.85
2019-05-10T06:52:22.023Z,67.85
2019-05-10T06:53:22.993Z,66.91
2019-05-10T06:54:19.022Z,67.14
2019-05-10T06:55:18.275Z,66.50
2019-05-10T06:56:18.288Z,66.61
2019-05-10T06:57:19.388Z,65.77
2019-05-10T06:58:19.013Z,65.47
2019-05-10T06:59:19.455Z,65.47
2019-05-10T07:00:20.207Z,65.87
2019-05-10T07:01:18.228Z,65.39
2019-05-10T07:02:19.938Z,65.47
2019-05-10T07:03:19.256Z,65.56
2019-05-10T07:04:19.098Z,65.26
2019-05-10T07:05:18.258Z,65.36
2019-05-10T07:06:20.063Z,65.43
2019-05-10T07:07:33.112Z,65.53
2019-05-10T07:08:20.584Z,64.42
2019-05-10T07:09:19.015Z,64.86
2019-05-10T07:10:19.380Z,65.67
2019-05-10T07:11:19.136Z,66.07
2019-05-10T07:12:18.554Z,65.67
2019-05-10T07:13:18.210Z,65.56
2019-05-10T07:14:18.516Z,65.97
2019-05-10T07:15:18.092Z,65.53
2019-05-10T07:16:24.096Z,65.36
2019-05-10T07:17:20.016Z,65.50
2019-05-10T07:18:22.533Z,66.50
2019-05-10T07:19:19.082Z,66.81
2019-05-10T07:20:18.059Z,66.50
2019-05-10T07:21:17.977Z,66.10
2019-05-10T07:22:21.673Z,65.90
2019-05-10T07:23:19.034Z,67.01
2019-05-10T07:24:24.347Z,66.61
2019-05-10T07:25:18.974Z,66.41
2019-05-10T07:26:24.599Z,66.84
2019-05-10T07:27:18.952Z,67.05
2019-05-10T07:28:17.980Z,67.25
2019-05-10T07:29:29.723Z,66.84
2019-05-10T07:30:18.896Z,67.05
2019-05-10T07:31:17.906Z,67.14
2019-05-10T07:32:22.118Z,67.65
2019-05-10T07:33:21.025Z,67.65
2019-05-10T07:34:17.884Z,67.76
2019-05-10T07:35:17.894Z,68.46
2019-05-10T07:36:20.920Z,68.36
2019-05-10T07:37:18.831Z,68.77
2019-05-10T07:38:23.520Z,68.97
2019-05-10T07:39:18.843Z,69.92
2019-05-10T07:40:18.525Z,70.08
2019-05-10T07:41:19.648Z,70.18
2019-05-10T07:42:18.911Z,70.08
2019-05-10T07:43:24.877Z,69.65
2019-05-10T07:44:19.688Z,69.57
2019-05-10T07:45:18.763Z,69.37
2019-05-10T07:46:18.729Z,69.78
2019-05-10T07:47:18.575Z,69.95
2019-05-10T07:48:17.943Z,69.48
2019-05-10T07:49:17.730Z,69.98
2019-05-10T07:50:17.846Z,69.68
2019-05-10T07:51:22.681Z,70.18
2019-05-10T07:52:18.676Z,70.12
2019-05-10T07:53:22.908Z,70.83
2019-05-10T07:54:18.672Z,70.93
2019-05-10T07:55:25.346Z,70.79
2019-05-10T07:56:19.579Z,70.21
2019-05-10T07:57:18.591Z,70.32
2019-05-10T07:58:18.589Z,70.21
2019-05-10T07:59:21.962Z,69.71
2019-05-10T08:00:18.567Z,68.87
2019-05-10T08:01:29.083Z,68.63
2019-05-10T08:02:18.557Z,68.73
2019-05-10T08:03:23.359Z,68.73
2019-05-10T08:04:27.574Z,68.70
2019-05-10T08:05:18.620Z,67.76
2019-05-10T08:06:19.350Z,68.13
2019-05-10T08:07:18.552Z,67.32
2019-05-10T08:08:19.217Z,65.95
2019-05-10T08:09:19.279Z,65.44
2019-05-10T08:10:19.066Z,65.64
2019-05-10T08:12:40.135Z,65.01
2019-05-10T08:13:45.635Z,64.50
2019-05-10T08:15:52.270Z,63.90
2019-05-10T08:17:05.789Z,64.00
2019-05-10T08:17:52.223Z,63.46
2019-05-10T08:18:55.574Z,62.80
2019-05-10T08:19:55.058Z,60.85
2019-05-10T08:20:57.742Z,61.56
2019-05-10T08:21:57.403Z,61.25
2019-05-10T08:22:53.220Z,61.05
2019-05-10T08:23:53.997Z,61.03
2019-05-10T08:24:55.896Z,59.52
2019-05-10T08:27:14.006Z,58.73
2019-05-10T08:28:09.725Z,57.09
2019-05-10T08:29:15.129Z,56.56
2019-05-10T08:30:22.756Z,55.86
2019-05-10T08:31:12.183Z,55.86
2019-05-10T08:32:08.648Z,55.83
2019-05-10T08:33:10.851Z,55.99
2019-05-10T08:34:08.681Z,55.35
2019-05-10T08:35:16.207Z,55.86
2019-05-10T08:36:11.968Z,55.35
2019-05-10T08:37:08.610Z,56.49
2019-05-10T08:38:08.697Z,56.59
2019-05-10T08:39:11.025Z,56.62
2019-05-10T08:40:09.480Z,57.52
2019-05-10T08:41:13.469Z,56.51
2019-05-10T08:42:29.391Z,58.28
2019-05-10T08:43:13.041Z,59.01
2019-05-10T08:44:16.638Z,59.42
2019-05-10T08:45:09.530Z,59.24
2019-05-10T08:46:08.617Z,59.14
2019-05-10T08:47:12.592Z,59.55
2019-05-10T08:48:09.525Z,59.75
2019-05-10T08:49:09.483Z,60.45
2019-05-10T08:50:21.552Z,59.75
2019-05-10T08:51:09.493Z,60.65
2019-05-10T08:52:08.549Z,60.48
2019-05-10T08:53:10.698Z,59.37
2019-05-10T08:54:08.469Z,59.50
2019-05-10T08:55:08.516Z,59.40
2019-05-10T08:56:16.063Z,59.09
2019-05-10T08:57:12.671Z,58.74
2019-05-10T08:58:09.384Z,57.53
2019-05-10T08:59:14.567Z,57.00
2019-05-10T09:00:09.487Z,57.10
2019-05-10T09:01:20.550Z,57.00
2019-05-10T09:02:09.395Z,57.70
2019-05-10T09:03:09.761Z,57.23
2019-05-10T09:04:10.874Z,58.74
2019-05-10T09:05:08.317Z,58.56
2019-05-10T09:06:11.862Z,58.56
2019-05-10T09:07:11.766Z,57.25
2019-05-10T09:08:13.555Z,57.43
2019-05-10T09:09:09.337Z,57.12
2019-05-10T09:10:09.692Z,56.62
2019-05-10T09:11:08.313Z,56.52
2019-05-10T09:12:09.332Z,57.60
2019-05-10T09:13:08.255Z,57.23
2019-05-10T09:14:12.380Z,57.53
2019-05-10T09:15:10.308Z,57.40
2019-05-10T09:16:08.262Z,56.09
2019-05-10T09:17:08.259Z,56.20
2019-05-10T09:18:08.351Z,56.57
2019-05-10T09:19:08.188Z,56.04
2019-05-10T09:20:11.984Z,55.43
2019-05-10T09:21:10.814Z,55.91
2019-05-10T09:22:08.999Z,55.28
2019-05-10T09:23:08.589Z,54.10
2019-05-10T09:24:09.275Z,55.58
2019-05-10T09:25:08.097Z,55.41
2019-05-10T09:26:11.725Z,55.08
2019-05-10T09:27:09.133Z,55.18
2019-05-10T09:28:11.511Z,55.28
2019-05-10T09:29:09.062Z,55.21
2019-05-10T09:30:13.055Z,55.81
2019-05-10T09:31:18.648Z,55.74
2019-05-10T09:32:09.265Z,55.87
2019-05-10T09:33:09.005Z,55.46
2019-05-10T09:34:08.119Z,55.21
2019-05-10T09:35:09.218Z,55.13
2019-05-10T09:36:07.995Z,54.93
2019-05-10T09:37:13.124Z,54.33
2019-05-10T09:38:09.033Z,54.50
2019-05-10T09:39:12.618Z,53.70
2019-05-10T09:40:09.865Z,53.77
2019-05-10T09:41:07.928Z,54.28
2019-05-10T09:42:11.036Z,53.77
2019-05-10T09:43:09.866Z,53.70
2019-05-10T09:44:07.884Z,54.60
2019-05-10T09:45:09.839Z,54.50
2019-05-10T09:46:08.556Z,54.75
2019-05-10T09:47:07.895Z,55.36
2019-05-10T09:48:07.853Z,55.49
2019-05-10T09:49:15.746Z,56.02
2019-05-10T09:50:08.920Z,56.75
2019-05-10T09:51:08.561Z,57.56
2019-05-10T09:52:12.527Z,58.19
2019-05-10T09:53:10.254Z,58.92
2019-05-10T09:54:07.864Z,59.33
2019-05-10T09:55:10.232Z,60.13
2019-05-10T09:56:08.780Z,60.46
2019-05-10T09:57:08.268Z,61.20
2019-05-10T09:58:08.590Z,61.00
2019-05-10T09:59:08.527Z,60.69
2019-05-10T10:00:07.734Z,61.03
2019-05-10T10:01:14.801Z,61.33
2019-05-10T10:02:14.549Z,61.94
2019-05-10T10:03:08.753Z,62.87
2019-05-10T10:04:07.701Z,63.21
2019-05-10T10:05:07.663Z,64.12
2019-05-10T10:06:11.117Z,65.23
2019-05-10T10:07:07.672Z,66.14
2019-05-10T10:08:09.086Z,67.79
2019-05-10T10:09:10.845Z,68.60
2019-05-10T10:10:07.771Z,69.04
2019-05-10T10:11:15.094Z,70.02
2019-05-10T10:12:08.585Z,72.08
2019-05-10T10:13:13.190Z,71.88
2019-05-10T10:14:10.206Z,73.59
2019-05-10T10:15:09.983Z,74.10
2019-05-10T10:16:10.338Z,72.48
2019-05-10T10:17:08.661Z,72.88
2019-05-10T10:18:07.546Z,72.88
2019-05-10T10:19:07.540Z,72.68
2019-05-10T10:20:08.452Z,71.77
2019-05-10T10:21:10.050Z,73.29
2019-05-10T10:22:11.115Z,73.19
2019-05-10T10:23:08.535Z,72.38
2019-05-10T10:24:15.791Z,73.49
2019-05-10T10:25:08.461Z,72.95
2019-05-10T10:26:07.450Z,71.64
2019-05-10T10:27:07.568Z,70.52
2019-05-10T10:28:16.452Z,70.18
2019-05-10T10:29:08.441Z,68.87
2019-05-10T10:30:12.861Z,69.04
2019-05-10T10:31:08.606Z,68.23
2019-05-10T10:32:08.130Z,67.69
2019-05-10T10:33:11.483Z,66.58
2019-05-10T10:34:08.350Z,66.55
2019-05-10T10:35:08.077Z,66.42
2019-05-10T10:36:10.417Z,65.48
2019-05-10T10:37:07.938Z,65.75
2019-05-10T10:38:08.073Z,64.27
2019-05-10T10:39:07.535Z,64.27
2019-05-10T10:40:08.701Z,63.43
2019-05-10T10:41:25.606Z,62.93
2019-05-10T10:42:12.940Z,63.53
2019-05-10T10:43:08.282Z,63.43
2019-05-10T10:44:08.414Z,63.46
2019-05-10T10:45:07.443Z,64.87
2019-05-10T10:46:11.962Z,63.87
2019-05-10T10:47:08.410Z,63.06
2019-05-10T10:48:12.598Z,62.85
2019-05-10T10:49:10.449Z,62.76
2019-05-10T10:50:09.108Z,62.76
2019-05-10T10:51:08.235Z,61.04
2019-05-10T10:52:11.380Z,62.55
2019-05-10T10:54:22.200Z,61.32
2019-05-10T10:55:18.720Z,60.68
2019-05-10T10:56:17.791Z,61.39
2019-05-10T10:57:18.052Z,60.78
2019-05-10T10:58:18.927Z,61.18
2019-05-10T10:59:18.302Z,59.57
2019-05-10T11:00:23.244Z,60.48
2019-05-10T11:01:24.979Z,60.28
2019-05-10T11:02:32.691Z,58.87
2019-05-10T11:03:18.725Z,59.17
2019-05-10T11:04:29.140Z,59.75
2019-05-10T11:05:26.700Z,59.14
2019-05-10T11:06:17.619Z,59.34
2019-05-10T11:07:17.621Z,59.34
2019-05-10T11:08:17.602Z,59.27
2019-05-10T11:09:17.597Z,58.97
2019-05-10T11:10:19.282Z,57.28
2019-05-10T11:11:17.569Z,57.78
2019-05-10T11:12:20.849Z,57.98
2019-05-10T11:13:29.029Z,57.08
2019-05-10T11:14:20.545Z,57.18
2019-05-10T11:15:23.086Z,56.77
2019-05-10T11:16:20.663Z,57.18
2019-05-10T11:17:17.522Z,57.68
2019-05-10T11:18:17.507Z,57.05
2019-05-10T11:19:17.482Z,56.75
2019-05-10T11:20:17.478Z,56.82
2019-05-10T11:21:17.464Z,57.03
2019-05-10T11:22:17.484Z,57.00
2019-05-10T11:23:17.440Z,55.08
2019-05-10T11:24:18.731Z,55.59
2019-05-10T11:25:17.448Z,54.21
2019-05-10T11:26:17.439Z,55.11
2019-05-10T11:27:17.509Z,55.51
2019-05-10T11:28:17.413Z,55.21
2019-05-10T11:29:25.332Z,54.18
2019-05-10T11:30:18.426Z,53.58
2019-05-10T11:31:17.365Z,54.08
2019-05-10T11:32:17.372Z,53.88
2019-05-10T11:33:27.291Z,54.08
2019-05-10T11:34:18.379Z,53.45
2019-05-10T11:35:25.204Z,54.05
2019-05-10T11:36:18.339Z,53.72
2019-05-10T11:37:18.562Z,52.82
2019-05-10T11:38:18.309Z,52.49
2019-05-10T11:39:25.920Z,52.39
2019-05-10T11:40:28.032Z,52.49
2019-05-10T11:41:23.654Z,51.46
2019-05-10T11:42:18.256Z,50.86
2019-05-10T11:43:17.511Z,50.86
2019-05-10T11:44:18.241Z,50.96
2019-05-10T11:45:17.226Z,51.09
2019-05-10T11:46:17.331Z,52.09
2019-05-10T11:47:24.094Z,52.19
2019-05-10T11:48:18.184Z,52.09
2019-05-10T11:49:17.201Z,52.06
2019-05-10T11:51:18.154Z,50.56
2019-05-10T11:52:17.138Z,52.17
2019-05-10T11:53:17.606Z,52.47
2019-05-10T11:54:17.107Z,51.44
2019-05-10T11:55:17.112Z,50.73
2019-05-10T11:56:17.210Z,50.41
2019-05-10T11:57:17.100Z,49.48
2019-05-10T11:58:17.083Z,49.56
2019-05-10T11:59:03.714Z,51.76
2019-05-10T11:59:17.072Z,47.81
2019-05-10T12:00:28.069Z,46.24
2019-05-10T12:01:21.481Z,44.29
2019-05-10T12:02:35.392Z,44.95
2019-05-10T12:03:22.388Z,41.82
2019-05-10T12:04:23.888Z,40.80
2019-05-10T12:05:22.806Z,39.70
2019-05-10T12:06:18.023Z,41.52
2019-05-10T12:07:23.892Z,41.80
2019-05-10T12:08:17.970Z,43.18
2019-05-10T12:09:16.977Z,38.94
2019-05-10T12:10:20.999Z,39.74
2019-05-10T12:11:29.409Z,40.58
2019-05-10T12:12:29.716Z,40.78
2019-05-10T12:13:20.824Z,42.27
2019-05-10T12:14:17.910Z,42.29
2019-05-10T12:15:24.741Z,40.95
2019-05-10T12:16:18.019Z,42.57
2019-05-10T12:17:16.906Z,42.82
2019-05-10T12:18:21.909Z,44.16
2019-05-10T12:19:21.253Z,44.58
2019-05-10T12:20:17.177Z,45.00
2019-05-10T12:21:16.873Z,45.72
2019-05-10T12:22:16.907Z,46.62
2019-05-10T12:23:22.877Z,46.15
2019-05-10T12:25:38.020Z,46.19
2019-05-10T12:26:50.013Z,46.77
2019-05-10T12:27:25.960Z,46.51
2019-05-10T12:28:24.524Z,47.42
2019-05-10T12:29:17.776Z,48.25
2019-05-10T12:30:16.773Z,48.25
2019-05-10T12:31:17.260Z,48.55
2019-05-10T12:32:16.733Z,49.18
2019-05-10T12:33:23.779Z,49.07
2019-05-10T12:34:17.742Z,50.20
2019-05-10T12:35:16.734Z,49.82
2019-05-10T12:36:23.632Z,50.63
2019-05-10T12:37:17.721Z,49.85
2019-05-10T12:38:16.682Z,50.76
2019-05-10T12:39:16.649Z,51.51
2019-05-10T12:40:16.636Z,52.34
2019-05-10T12:41:16.666Z,52.67
2019-05-10T12:42:17.200Z,53.67
2019-05-10T12:43:16.609Z,54.21
2019-05-10T12:44:16.588Z,53.83
2019-05-10T12:45:17.151Z,54.83
2019-05-10T12:46:16.565Z,54.53
2019-05-10T12:47:16.547Z,54.74
2019-05-10T12:48:16.575Z,54.46
2019-05-10T12:49:16.542Z,55.87
2019-05-10T12:50:16.688Z,55.47
2019-05-10T12:51:16.743Z,55.49
2019-05-10T12:52:16.596Z,56.10
2019-05-10T12:53:18.503Z,56.53
2019-05-10T12:54:18.425Z,56.36
2019-05-10T12:55:17.585Z,57.24
2019-05-10T12:56:17.697Z,57.78
2019-05-10T12:57:16.495Z,57.85
2019-05-10T12:58:16.434Z,58.33
2019-05-10T12:59:16.460Z,57.11